Time;durP1;ratioP1;P1;durP2;ratioP2;P2;SDS_P1;SDS_P2;PMS_P1;PMS_P2;Temp;Humidity;BMP_temperature;BMP_pressure;BME280_temperature;BME280_humidity;BME280_pressure;Samples;Min_cycle;Max_cycle;Signal;HPM_P1;HPM_P2
2022/05/18 00:00:32;;;;;;;7.70;5.07;;;17.20;99.90;;;;;;5031270;28;20620;-83
2022/05/18 00:03:04;;;;;;;8.25;5.40;;;17.20;99.90;;;;;;5033597;28;20056;-83
2022/05/18 00:05:34;;;;;;;7.93;4.85;;;17.10;99.90;;;;;;5036332;28;20048;-83
2022/05/18 00:08:00;;;;;;;5.57;4.82;;;17.10;99.90;;;;;;5014319;28;20462;-83
2022/05/18 00:10:25;;;;;;;8.00;5.90;;;17.10;99.90;;;;;;5032682;28;20132;-83
2022/05/18 00:12:51;;;;;;;6.03;5.07;;;17.00;99.90;;;;;;5032023;28;20064;-83
2022/05/18 00:15:19;;;;;;;7.53;5.30;;;17.00;99.90;;;;;;5027622;28;20037;-83
2022/05/18 00:17:45;;;;;;;8.27;5.65;;;17.00;99.90;;;;;;5034665;28;20568;-83
2022/05/18 00:20:12;;;;;;;7.03;5.35;;;16.90;99.90;;;;;;5033584;28;20172;-83
2022/05/18 00:22:46;;;;;;;8.85;5.30;;;16.90;99.90;;;;;;5038130;28;20098;-83
2022/05/18 00:25:12;;;;;;;8.40;5.35;;;16.80;99.90;;;;;;5039892;28;20490;-83
2022/05/18 00:27:38;;;;;;;8.02;5.70;;;16.80;99.90;;;;;;5030524;28;20037;-85
2022/05/18 00:30:04;;;;;;;8.40;5.53;;;16.80;99.90;;;;;;5030608;28;20410;-84
2022/05/18 00:32:30;;;;;;;6.70;5.68;;;16.70;99.90;;;;;;5030359;28;20087;-85
2022/05/18 00:34:56;;;;;;;8.00;5.68;;;16.90;99.90;;;;;;5031129;28;20099;-85
2022/05/18 00:37:21;;;;;;;6.57;5.53;;;16.80;99.90;;;;;;5029278;28;20052;-85
2022/05/18 00:39:47;;;;;;;9.98;5.72;;;16.70;99.90;;;;;;5033732;28;20038;-84
2022/05/18 00:42:24;;;;;;;7.07;5.30;;;16.60;99.90;;;;;;5033071;28;20049;-85
2022/05/18 00:44:49;;;;;;;7.35;5.10;;;16.40;99.90;;;;;;5033823;28;20123;-85
2022/05/18 00:47:15;;;;;;;7.93;6.10;;;16.50;99.90;;;;;;5037335;28;20129;-85
2022/05/18 00:49:45;;;;;;;9.68;6.00;;;16.40;99.90;;;;;;5035352;28;20043;-85
2022/05/18 00:52:12;;;;;;;7.13;6.18;;;16.50;99.90;;;;;;5029521;28;20084;-85
2022/05/18 00:54:38;;;;;;;6.25;5.40;;;16.40;99.90;;;;;;5037038;28;20523;-85
2022/05/18 00:57:32;;;;;;;8.82;5.70;;;16.30;99.90;;;;;;5030357;28;20510;-86
2022/05/18 01:00:05;;;;;;;7.70;5.82;;;16.30;99.90;;;;;;5032053;28;20056;-85
2022/05/18 01:02:34;;;;;;;6.30;5.60;;;16.50;99.90;;;;;;5032132;28;20107;-85
2022/05/18 01:05:02;;;;;;;6.78;6.05;;;;;;;;;;5039621;28;20041;-85
2022/05/18 01:07:30;;;;;;;7.18;6.18;;;;;;;;;;5029476;28;20053;-86
2022/05/18 01:09:56;;;;;;;7.95;5.78;;;15.70;99.90;;;;;;5019405;28;20045;-85
2022/05/18 01:12:22;;;;;;;7.47;5.85;;;16.20;99.90;;;;;;5012516;28;20375;-85
2022/05/18 01:14:50;;;;;;;8.63;5.50;;;;;;;;;;5032917;28;20029;-85
2022/05/18 01:17:20;;;;;;;11.80;5.90;;;16.20;99.90;;;;;;5016649;28;20041;-86
2022/05/18 01:19:55;;;;;;;7.65;5.93;;;16.20;99.90;;;;;;5034652;28;20076;-86
2022/05/18 01:22:42;;;;;;;7.93;5.43;;;16.20;99.90;;;;;;5032031;28;20171;-86
2022/05/18 01:25:47;;;;;;;9.13;5.85;;;16.10;99.90;;;;;;5033478;28;20127;-86
2022/05/18 01:28:13;;;;;;;8.48;5.70;;;16.10;99.90;;;;;;5033689;28;20041;-85
2022/05/18 01:30:46;;;;;;;8.13;5.88;;;16.10;99.90;;;;;;5031501;28;20088;-86
2022/05/18 01:33:13;;;;;;;7.28;5.55;;;16.10;99.90;;;;;;5040060;28;20037;-83
2022/05/18 01:35:42;;;;;;;11.20;6.32;;;16.10;99.90;;;;;;5016865;28;20044;-83
2022/05/18 01:38:12;;;;;;;8.60;5.78;;;16.00;99.90;;;;;;5031687;28;20140;-84
2022/05/18 01:41:17;;;;;;;6.78;5.93;;;16.00;99.90;;;;;;5032188;28;20045;-84
2022/05/18 01:43:50;;;;;;;7.43;5.72;;;16.00;99.90;;;;;;5018145;28;20133;-84
2022/05/18 01:46:18;;;;;;;9.45;6.13;;;;;;;;;;5038383;28;20045;-84
2022/05/18 01:48:46;;;;;;;7.68;5.82;;;;;;;;;;5033810;28;20119;-84
2022/05/18 01:51:25;;;;;;;6.97;6.13;;;16.20;99.90;;;;;;5037381;28;20056;-84
2022/05/18 01:53:51;;;;;;;8.85;5.43;;;;;;;;;;5038510;28;20080;-84
2022/05/18 01:56:17;;;;;;;8.60;6.60;;;15.30;99.90;;;;;;5035936;28;20413;-83
2022/05/18 01:58:42;;;;;;;9.23;5.82;;;15.80;99.90;;;;;;5027481;28;20053;-83
2022/05/18 02:01:08;;;;;;;8.48;5.90;;;15.90;99.90;;;;;;5043341;28;20048;-83
2022/05/18 02:03:33;;;;;;;6.35;5.70;;;14.50;99.90;;;;;;5019453;28;20033;-83
2022/05/18 02:05:59;;;;;;;8.40;6.32;;;;;;;;;;5036809;28;20447;-84
2022/05/18 02:08:25;;;;;;;10.00;6.22;;;;;;;;;;5034200;28;20405;-84
2022/05/18 02:10:51;;;;;;;6.88;5.93;;;15.50;99.90;;;;;;5037285;28;20057;-83
2022/05/18 02:13:17;;;;;;;6.88;6.18;;;15.60;99.90;;;;;;5041908;28;20044;-84
2022/05/18 02:15:43;;;;;;;7.35;6.00;;;15.60;99.90;;;;;;5024561;28;20053;-83
2022/05/18 02:18:09;;;;;;;8.68;6.07;;;15.40;99.90;;;;;;5038807;28;20111;-83
2022/05/18 02:20:35;;;;;;;8.15;6.03;;;;;;;;;;5039076;28;20478;-84
2022/05/18 02:23:01;;;;;;;9.10;6.45;;;16.40;99.90;;;;;;5031804;28;20095;-84
2022/05/18 02:25:27;;;;;;;8.98;6.18;;;15.40;99.90;;;;;;5036539;28;20095;-83
2022/05/18 02:27:54;;;;;;;7.13;6.20;;;15.30;99.90;;;;;;5036146;28;20743;-84
2022/05/18 02:30:20;;;;;;;8.88;7.00;;;15.30;99.90;;;;;;5041299;28;20103;-83
2022/05/18 02:32:46;;;;;;;10.55;6.90;;;15.30;99.90;;;;;;5035922;28;20037;-83
2022/05/18 02:35:12;;;;;;;8.07;6.80;;;15.20;99.90;;;;;;5038952;28;20465;-82
2022/05/18 02:37:38;;;;;;;9.77;6.45;;;15.20;99.90;;;;;;5035426;28;20505;-81
2022/05/18 02:40:06;;;;;;;8.23;6.97;;;15.20;99.90;;;;;;5040237;28;20072;-82
2022/05/18 02:42:31;;;;;;;7.47;6.70;;;15.20;99.90;;;;;;5034713;28;20291;-82
2022/05/18 02:44:57;;;;;;;8.25;7.07;;;15.20;99.90;;;;;;5038078;28;20041;-82
2022/05/18 02:47:23;;;;;;;10.85;7.40;;;15.10;99.90;;;;;;5021080;28;20040;-82
2022/05/18 02:49:48;;;;;;;8.45;6.93;;;15.10;99.90;;;;;;5034723;28;20456;-82
2022/05/18 02:52:14;;;;;;;8.38;7.10;;;15.10;99.90;;;;;;5032507;28;20057;-82
2022/05/18 02:57:24;;;;;;;8.68;7.13;;;15.00;99.90;;;;;;5034917;28;20409;-83
2022/05/18 02:59:49;;;;;;;8.50;6.97;;;15.00;99.90;;;;;;5041790;28;20029;-83
2022/05/18 03:02:15;;;;;;;11.25;7.80;;;15.00;99.90;;;;;;5020173;28;20059;-84
2022/05/18 03:04:41;;;;;;;9.23;7.60;;;14.90;99.90;;;;;;5039669;28;20118;-84
2022/05/18 03:07:06;;;;;;;9.68;7.82;;;14.90;99.90;;;;;;5039252;28;20041;-84
2022/05/18 03:09:32;;;;;;;8.57;7.78;;;14.80;99.90;;;;;;5034304;28;20402;-84
2022/05/18 03:11:58;;;;;;;8.93;7.25;;;14.80;99.90;;;;;;5034942;28;20049;-83
2022/05/18 03:14:24;;;;;;;8.45;7.57;;;14.80;99.90;;;;;;5034250;28;20405;-82
2022/05/18 03:16:51;;;;;;;9.23;7.72;;;14.70;99.90;;;;;;5057790;28;20490;-82
2022/05/18 03:19:17;;;;;;;9.07;8.18;;;;;;;;;;5033799;28;20052;-82
2022/05/18 03:24:27;;;;;;;11.23;8.35;;;14.60;99.90;;;;;;5033705;28;20045;-83
2022/05/18 03:26:53;;;;;;;10.25;7.90;;;14.60;99.90;;;;;;5034832;28;20143;-83
2022/05/18 03:29:19;;;;;;;9.38;8.00;;;14.60;99.90;;;;;;5016967;28;20040;-83
2022/05/18 03:31:47;;;;;;;12.15;7.95;;;14.60;99.90;;;;;;5029568;28;20045;-83
2022/05/18 03:34:13;;;;;;;;;;;14.50;99.90;;;;;;5038711;28;20108;-83
2022/05/18 03:36:39;;;;;;;9.60;8.55;;;14.50;99.90;;;;;;5034617;28;20015;-83
2022/05/18 03:39:06;;;;;;;11.75;9.07;;;14.50;99.90;;;;;;5037590;28;20037;-83
2022/05/18 03:41:34;;;;;;;9.80;8.80;;;14.50;99.90;;;;;;5032987;28;20556;-84
2022/05/18 03:44:01;;;;;;;10.13;9.05;;;14.40;99.90;;;;;;5046308;28;20309;-83
2022/05/18 03:46:27;;;;;;;12.18;8.75;;;14.40;99.90;;;;;;5053554;28;20034;-84
2022/05/18 03:48:52;;;;;;;10.95;8.93;;;14.40;99.90;;;;;;5053503;28;20063;-83
2022/05/18 03:51:18;;;;;;;10.73;9.57;;;14.40;99.90;;;;;;5066839;28;20017;-82
2022/05/18 03:53:43;;;;;;;10.50;8.82;;;14.40;99.90;;;;;;5051016;28;20126;-83
2022/05/18 03:56:10;;;;;;;11.35;9.55;;;14.40;99.90;;;;;;5018371;28;20413;-83
2022/05/18 03:58:36;;;;;;;10.65;8.88;;;14.50;99.90;;;;;;5043282;28;20040;-83
2022/05/18 04:01:08;;;;;;;11.20;9.40;;;14.50;99.90;;;;;;5041710;28;20037;-83
2022/05/18 04:03:35;;;;;;;10.45;9.43;;;14.50;99.90;;;;;;5043629;28;20049;-84
2022/05/18 04:06:01;;;;;;;10.30;9.30;;;14.60;99.90;;;;;;5052738;28;20097;-84
2022/05/18 04:08:27;;;;;;;10.75;9.65;;;14.60;99.90;;;;;;5058701;28;20049;-84
2022/05/18 04:10:54;;;;;;;11.07;10.00;;;14.60;99.90;;;;;;5043339;28;20024;-82
2022/05/18 04:13:21;;;;;;;12.27;10.07;;;14.60;99.90;;;;;;5063745;28;20033;-82
2022/05/18 04:15:47;;;;;;;13.77;10.25;;;14.70;99.90;;;;;;5057482;28;20044;-83
2022/05/18 04:18:13;;;;;;;12.75;9.98;;;14.70;99.90;;;;;;5037354;28;20045;-84
2022/05/18 04:20:40;;;;;;;11.98;10.43;;;14.80;99.90;;;;;;5017896;28;20091;-83
2022/05/18 04:23:06;;;;;;;13.02;10.23;;;14.80;99.90;;;;;;5037334;28;20052;-83
2022/05/18 04:25:32;;;;;;;10.55;9.32;;;14.80;99.90;;;;;;5037570;28;20039;-83
2022/05/18 04:27:57;;;;;;;12.20;10.85;;;14.90;99.90;;;;;;5033872;28;20120;-83
2022/05/18 04:30:27;;;;;;;11.63;10.52;;;14.90;99.90;;;;;;5033796;28;20057;-83
2022/05/18 04:32:53;;;;;;;12.82;11.30;;;15.00;99.90;;;;;;5038057;28;20049;-83
2022/05/18 04:35:24;;;;;;;12.15;10.90;;;15.10;99.90;;;;;;5038242;28;20045;-82
2022/05/18 04:37:50;;;;;;;13.35;11.48;;;15.20;99.90;;;;;;5036961;28;20029;-83
2022/05/18 04:40:16;;;;;;;13.10;11.50;;;15.40;99.90;;;;;;5035584;28;20193;-83
2022/05/18 04:42:42;;;;;;;14.20;10.45;;;15.60;99.90;;;;;;5029916;28;20044;-83
2022/05/18 04:45:12;;;;;;;10.95;9.98;;;16.50;99.90;;;;;;5032972;28;20079;-83
2022/05/18 04:47:37;;;;;;;12.23;10.93;;;17.70;99.90;;;;;;5030754;28;20045;-83
2022/05/18 04:50:04;;;;;;;12.43;9.88;;;;;;;;;;5011482;28;20044;-83
2022/05/18 04:52:29;;;;;;;10.23;9.20;;;18.40;99.90;;;;;;5033827;28;20118;-83
2022/05/18 04:54:55;;;;;;;9.68;8.68;;;18.90;99.90;;;;;;5033830;28;20552;-82
2022/05/18 04:57:21;;;;;;;11.15;8.52;;;19.30;99.90;;;;;;5033470;28;20041;-83
2022/05/18 04:59:48;;;;;;;10.45;8.55;;;19.70;99.90;;;;;;5033871;28;20051;-83
2022/05/18 05:02:14;;;;;;;9.80;8.77;;;20.40;99.90;;;;;;5033781;28;20132;-83
2022/05/18 05:04:39;;;;;;;9.95;8.18;;;20.70;99.90;;;;;;5032826;28;20303;-83
2022/05/18 05:07:05;;;;;;;10.25;8.10;;;21.20;99.90;;;;;;5014558;28;20038;-82
2022/05/18 05:09:31;;;;;;;8.00;7.20;;;21.80;99.90;;;;;;5031692;28;20037;-83
2022/05/18 05:11:56;;;;;;;8.13;7.32;;;22.40;99.90;;;;;;5031219;28;20092;-83
2022/05/18 05:14:22;;;;;;;10.25;7.00;;;22.30;99.90;;;;;;5035016;28;20098;-83
2022/05/18 05:16:48;;;;;;;12.63;7.03;;;23.10;99.90;;;;;;5041916;28;20114;-83
2022/05/18 05:19:14;;;;;;;8.10;6.63;;;23.10;99.90;;;;;;5032636;28;20097;-83
2022/05/18 05:21:42;;;;;;;9.48;6.65;;;23.80;99.90;;;;;;5015358;28;20041;-83
2022/05/18 05:24:11;;;;;;;;;;;24.30;99.90;;;;;;5035183;28;20073;-83
2022/05/18 05:26:38;;;;;;;7.90;7.03;;;24.20;99.90;;;;;;5026635;28;20216;-83
2022/05/18 05:29:04;;;;;;;8.57;6.65;;;24.50;99.90;;;;;;5030970;28;20118;-83
2022/05/18 05:31:30;;;;;;;7.43;6.57;;;25.00;99.90;;;;;;5034259;28;20478;-83
2022/05/18 05:33:56;;;;;;;8.02;6.38;;;25.60;99.90;;;;;;5034142;28;20106;-83
2022/05/18 05:36:22;;;;;;;10.30;5.82;;;25.70;99.90;;;;;;5036070;28;20047;-83
2022/05/18 05:38:48;;;;;;;7.28;6.15;;;26.30;99.90;;;;;;5026768;28;20044;-84
2022/05/18 05:41:13;;;;;;;9.63;6.40;;;26.60;99.90;;;;;;5039471;28;20037;-84
2022/05/18 05:43:41;;;;;;;9.90;6.03;;;27.10;99.90;;;;;;5036044;28;20234;-83
2022/05/18 05:46:10;;;;;;;7.88;6.32;;;27.40;99.90;;;;;;5024548;28;20098;-83
2022/05/18 05:48:36;;;;;;;10.60;5.95;;;27.70;99.90;;;;;;5041879;28;20037;-89
2022/05/18 05:51:03;;;;;;;10.50;6.28;;;27.80;99.60;;;;;;5037245;28;20057;-88
2022/05/18 05:53:32;;;;;;;7.93;6.20;;;28.20;97.00;;;;;;5019050;28;20140;-87
2022/05/18 05:55:58;;;;;;;9.55;5.95;;;28.20;98.70;;;;;;5043669;28;20041;-87
2022/05/18 05:58:24;;;;;;;10.68;6.18;;;28.60;96.60;;;;;;5040461;28;20041;-89
2022/05/18 06:00:49;;;;;;;7.53;5.53;;;28.60;94.10;;;;;;5032655;28;20041;-88
2022/05/18 06:03:17;;;;;;;9.52;4.95;;;28.70;90.80;;;;;;5035247;28;20049;-84
2022/05/18 06:05:43;;;;;;;7.03;5.55;;;28.40;91.20;;;;;;5040861;28;20724;-86
2022/05/18 06:08:09;;;;;;;6.93;5.85;;;28.60;92.70;;;;;;5018335;28;20040;-87
2022/05/18 06:10:35;;;;;;;7.00;5.63;;;28.40;89.30;;;;;;5021598;28;20132;-85
2022/05/18 06:13:08;;;;;;;8.25;5.90;;;29.20;91.10;;;;;;5036623;28;20064;-86
2022/05/18 06:15:34;;;;;;;7.32;5.45;;;29.30;87.70;;;;;;5055018;22;20061;-53
2022/05/18 06:17:59;;;;;;;7.88;5.68;;;29.20;81.80;;;;;;5013146;28;20095;-53
2022/05/18 06:20:25;;;;;;;8.27;6.13;;;29.30;86.80;;;;;;5022051;28;20717;-52
2022/05/18 06:22:50;;;;;;;7.82;5.68;;;29.10;77.40;;;;;;5020245;28;20045;-54
2022/05/18 06:25:18;;;;;;;6.20;5.60;;;29.20;83.80;;;;;;5030241;28;20091;-54
2022/05/18 06:27:44;;;;;;;6.55;5.85;;;29.50;85.80;;;;;;5028450;28;20082;-53
2022/05/18 06:30:12;;;;;;;10.15;6.25;;;29.50;80.60;;;;;;5012955;28;20041;-52
2022/05/18 06:32:37;;;;;;;9.38;6.15;;;29.40;79.80;;;;;;5024274;28;20033;-53
2022/05/18 06:35:04;;;;;;;6.50;5.80;;;29.50;78.20;;;;;;5019169;28;20049;-55
2022/05/18 06:37:29;;;;;;;8.95;5.68;;;29.60;82.80;;;;;;5031893;28;20045;-54
2022/05/18 06:39:55;;;;;;;8.80;6.13;;;29.70;82.50;;;;;;5015628;28;20041;-54
2022/05/18 06:42:21;;;;;;;6.85;6.10;;;29.60;79.00;;;;;;5026580;28;20044;-52
2022/05/18 06:44:47;;;;;;;6.80;6.13;;;29.90;80.20;;;;;;5030492;28;20052;-55
2022/05/18 06:47:13;;;;;;;6.93;6.32;;;29.90;76.30;;;;;;5029819;28;20049;-52
2022/05/18 06:49:40;;;;;;;9.02;6.38;;;29.90;76.90;;;;;;5032850;28;20045;-54
2022/05/18 06:52:06;;;;;;;8.15;5.63;;;30.00;76.40;;;;;;5032310;28;20064;-55
2022/05/18 06:54:32;;;;;;;7.85;6.28;;;29.90;77.50;;;;;;5007086;28;20046;-53
2022/05/18 06:56:58;;;;;;;7.70;5.97;;;29.90;75.80;;;;;;5005827;28;20053;-54
2022/05/18 06:59:23;;;;;;;7.97;6.25;;;30.10;74.10;;;;;;5013335;28;20057;-55
2022/05/18 07:01:49;;;;;;;8.35;6.47;;;30.10;73.90;;;;;;5013343;28;20052;-54
2022/05/18 07:04:15;;;;;;;8.23;6.30;;;30.20;74.30;;;;;;5013366;28;20121;-54
2022/05/18 07:06:42;;;;;;;7.25;5.80;;;30.10;75.30;;;;;;5019154;28;20076;-53
2022/05/18 07:09:11;;;;;;;6.60;5.88;;;30.10;72.00;;;;;;5010876;28;20125;-54
2022/05/18 07:11:37;;;;;;;8.27;5.82;;;30.00;72.50;;;;;;5023413;28;20045;-54
2022/05/18 07:14:06;;;;;;;10.73;5.75;;;30.30;73.00;;;;;;5012671;28;20052;-54
2022/05/18 07:16:33;;;;;;;8.43;6.07;;;30.20;73.10;;;;;;5018011;28;20499;-55
2022/05/18 07:18:58;;;;;;;;;;;30.00;70.00;;;;;;5008982;28;20111;-53
2022/05/18 07:21:25;;;;;;;7.68;5.40;;;30.00;74.00;;;;;;5025177;28;19925;-54
2022/05/18 07:23:52;;;;;;;7.97;5.97;;;29.80;73.20;;;;;;5011760;28;20038;-53
2022/05/18 07:26:19;;;;;;;9.30;5.97;;;29.90;74.80;;;;;;5008599;28;20080;-54
2022/05/18 07:28:45;;;;;;;8.40;6.55;;;29.90;73.10;;;;;;5013035;28;20050;-55
2022/05/18 07:31:11;;;;;;;10.05;6.38;;;29.80;73.40;;;;;;5022941;28;20180;-55
2022/05/18 07:33:37;;;;;;;8.43;6.00;;;29.40;75.90;;;;;;5011564;28;20137;-55
2022/05/18 07:36:05;;;;;;;7.07;5.93;;;29.20;77.80;;;;;;5013421;28;20109;-55
2022/05/18 07:38:32;;;;;;;8.15;5.97;;;28.90;77.80;;;;;;5032135;28;20085;-54
2022/05/18 07:40:58;;;;;;;9.35;6.70;;;28.60;78.60;;;;;;5027091;28;20041;-56
2022/05/18 07:43:24;;;;;;;8.57;6.80;;;28.20;80.80;;;;;;5030559;28;20051;-55
2022/05/18 07:45:51;;;;;;;8.20;6.05;;;28.00;86.20;;;;;;5030025;28;20045;-53
2022/05/18 07:48:17;;;;;;;10.65;6.10;;;27.80;89.80;;;;;;5030310;28;20045;-55
2022/05/18 07:50:43;;;;;;;9.73;5.80;;;27.60;91.70;;;;;;5016574;28;20114;-55
2022/05/18 07:53:08;;;;;;;5.85;5.28;;;27.50;90.10;;;;;;5010803;28;20033;-55
2022/05/18 07:55:34;;;;;;;6.32;5.72;;;27.10;89.90;;;;;;5011458;28;20045;-55
2022/05/18 07:58:04;;;;;;;9.73;5.95;;;26.70;91.40;;;;;;5007509;28;20038;-55
2022/05/18 08:00:30;;;;;;;6.10;5.50;;;26.80;91.80;;;;;;5008486;28;20122;-55
2022/05/18 08:02:55;;;;;;;7.78;5.68;;;26.70;93.10;;;;;;5011115;28;20041;-55
2022/05/18 08:05:21;;;;;;;5.97;5.30;;;26.50;92.90;;;;;;5011793;28;20060;-55
2022/05/18 08:07:47;;;;;;;10.68;5.60;;;26.60;95.10;;;;;;5024705;28;20125;-54
2022/05/18 08:15:45;;;;;;;6.28;4.60;;;26.70;96.90;;;;;;5010867;28;20107;-55
2022/05/18 08:18:11;;;;;;;8.55;5.35;;;26.70;95.50;;;;;;5009697;28;20045;-54
2022/05/18 08:20:39;;;;;;;5.80;4.95;;;26.80;95.80;;;;;;5010398;28;20057;-54
2022/05/18 08:23:06;;;;;;;6.55;5.25;;;26.80;96.10;;;;;;5006695;28;20038;-55
2022/05/18 08:25:32;;;;;;;6.70;5.00;;;26.90;96.20;;;;;;5010374;28;20042;-54
2022/05/18 08:27:57;;;;;;;6.15;5.28;;;27.00;95.70;;;;;;5010485;28;20030;-54
2022/05/18 08:30:23;;;;;;;7.97;5.30;;;27.00;96.10;;;;;;5010706;28;20045;-55
2022/05/18 08:32:50;;;;;;;8.88;5.53;;;27.10;97.20;;;;;;5010819;28;20414;-54
2022/05/18 08:35:17;;;;;;;5.80;5.13;;;27.20;96.00;;;;;;5010681;28;20068;-55
2022/05/18 08:37:48;;;;;;;7.43;5.15;;;27.30;95.80;;;;;;5009399;28;20085;-55
2022/05/18 08:40:30;;;;;;;5.15;4.65;;;27.30;95.40;;;;;;4991804;28;20042;-55
2022/05/18 08:43:00;;;;;;;9.10;4.40;;;27.50;94.20;;;;;;4997488;28;20057;-55
2022/05/18 08:45:30;;;;;;;7.40;4.47;;;27.40;94.60;;;;;;5010678;28;20050;-55
2022/05/18 08:48:07;;;;;;;5.78;4.20;;;27.40;94.40;;;;;;5005377;28;20052;-54
2022/05/18 08:50:33;;;;;;;6.65;4.90;;;27.60;93.90;;;;;;5010793;28;20498;-54
2022/05/18 08:53:02;;;;;;;7.55;5.28;;;27.50;92.50;;;;;;5008649;28;20144;-54
2022/05/18 08:55:49;;;;;;;5.68;4.93;;;27.60;92.00;;;;;;5009315;28;20445;-54
2022/05/18 08:58:30;;;;;;;5.22;4.72;;;27.60;92.70;;;;;;5010150;28;20308;-55
2022/05/18 09:00:59;;;;;;;5.57;4.25;;;27.70;93.50;;;;;;5010269;28;20107;-54
2022/05/18 09:03:34;;;;;;;5.32;4.68;;;27.90;94.20;;;;;;5011024;28;20476;-55
2022/05/18 09:06:10;;;;;;;6.10;5.45;;;28.10;92.80;;;;;;5014466;28;20108;-55
2022/05/18 09:08:38;;;;;;;9.75;5.53;;;28.10;91.20;;;;;;5013181;28;20432;-55
2022/05/18 09:11:18;;;;;;;5.55;4.53;;;28.20;92.30;;;;;;5015232;28;20069;-55
2022/05/18 09:13:44;;;;;;;5.68;4.80;;;28.10;92.80;;;;;;5007891;28;20046;-55
2022/05/18 09:16:31;;;;;;;5.50;4.43;;;28.20;91.40;;;;;;5014434;28;20064;-55
2022/05/18 09:19:10;;;;;;;5.28;3.97;;;28.20;92.50;;;;;;5028700;28;20065;-55
2022/05/18 09:21:58;;;;;;;5.03;3.97;;;28.30;90.00;;;;;;5013470;28;20049;-55
2022/05/18 09:24:53;;;;;;;11.77;4.43;;;28.30;90.40;;;;;;5012729;28;20053;-54
2022/05/18 09:27:29;;;;;;;8.45;4.32;;;28.40;89.50;;;;;;5008253;28;20100;-55
2022/05/18 09:30:14;;;;;;;5.93;4.40;;;28.40;89.90;;;;;;5011495;28;20038;-54
2022/05/18 09:33:01;;;;;;;6.93;4.35;;;28.40;90.10;;;;;;5013438;28;20115;-54
2022/05/18 09:35:46;;;;;;;5.35;3.83;;;28.60;86.90;;;;;;5012844;28;20038;-55
2022/05/18 09:38:37;;;;;;;7.78;4.40;;;28.60;86.20;;;;;;4997331;28;20045;-55
2022/05/18 09:41:07;;;;;;;5.93;4.25;;;28.60;89.30;;;;;;5004754;28;20425;-54
2022/05/18 09:43:51;;;;;;;12.60;4.75;;;28.70;87.20;;;;;;5012549;28;20069;-54
2022/05/18 09:46:22;;;;;;;4.93;4.43;;;28.80;84.50;;;;;;5014085;28;20041;-55
2022/05/18 09:49:09;;;;;;;6.78;4.70;;;28.90;83.80;;;;;;5011692;28;20042;-55
2022/05/18 09:51:36;;;;;;;5.22;4.72;;;28.80;85.20;;;;;;5013254;28;20473;-55
2022/05/18 09:54:03;;;;;;;8.43;4.70;;;28.80;86.00;;;;;;5012683;28;20133;-55
2022/05/18 09:56:55;;;;;;;8.70;4.38;;;28.90;87.50;;;;;;5012045;28;20141;-55
2022/05/18 09:59:27;;;;;;;6.03;4.50;;;29.00;86.70;;;;;;5012886;28;20092;-54
2022/05/18 10:07:28;;;;;;;4.95;4.25;;;29.30;88.60;;;;;;5007884;28;20117;-56
2022/05/18 10:10:13;;;;;;;8.20;4.40;;;29.30;85.40;;;;;;5016417;28;20053;-55
2022/05/18 10:12:46;;;;;;;7.38;5.43;;;29.40;86.00;;;;;;5012598;28;20053;-54
2022/05/18 10:15:33;;;;;;;5.05;4.55;;;29.40;84.80;;;;;;5010062;28;20066;-54
2022/05/18 10:18:09;;;;;;;6.38;4.20;;;29.40;84.00;;;;;;5016839;28;20137;-54
2022/05/18 10:20:36;;;;;;;7.45;4.55;;;29.40;81.00;;;;;;5012368;28;20100;-55
2022/05/18 10:23:03;;;;;;;4.43;4.03;;;29.60;80.70;;;;;;5013332;28;20038;-54
2022/05/18 10:25:39;;;;;;;6.25;4.38;;;29.30;81.40;;;;;;5028697;28;20081;-55
2022/05/18 10:28:40;;;;;;;5.33;3.47;;;29.40;81.30;;;;;;5019414;28;20087;-54
2022/05/18 10:31:14;;;;;;;7.43;4.60;;;29.60;79.00;;;;;;4968513;28;20104;-55
2022/05/18 10:33:41;;;;;;;7.80;3.88;;;29.80;80.40;;;;;;5013054;28;20050;-55
2022/05/18 10:36:24;;;;;;;5.55;4.55;;;30.10;81.40;;;;;;5012407;28;20084;-56
2022/05/18 10:38:55;;;;;;;6.18;3.80;;;29.90;78.90;;;;;;5018315;28;20038;-56
2022/05/18 10:41:26;;;;;;;5.80;3.60;;;29.90;78.10;;;;;;5027007;28;20041;-54
2022/05/18 10:43:54;;;;;;;5.88;3.53;;;30.10;77.00;;;;;;5012999;28;20053;-54
2022/05/18 10:46:48;;;;;;;5.15;4.15;;;30.20;77.60;;;;;;5012085;28;20134;-55
2022/05/18 10:49:31;;;;;;;8.50;4.43;;;30.40;73.70;;;;;;5016044;28;20567;-53
2022/05/18 10:52:17;;;;;;;5.55;4.10;;;30.50;74.60;;;;;;5013297;28;20432;-54
2022/05/18 10:54:58;;;;;;;6.32;4.18;;;30.70;76.60;;;;;;5021888;28;20127;-55
2022/05/18 10:57:38;;;;;;;5.22;4.30;;;30.40;73.60;;;;;;5011887;28;20049;-55
2022/05/18 11:00:15;;;;;;;7.85;5.50;;;29.80;71.70;;;;;;5037367;28;20144;-55
2022/05/18 11:03:02;;;;;;;7.88;5.93;;;29.60;76.10;;;;;;5032393;28;20066;-55
2022/05/18 11:05:48;;;;;;;8.30;5.60;;;29.70;75.60;;;;;;5023932;28;20518;-55
2022/05/18 11:08:17;;;;;;;8.70;5.80;;;30.00;79.70;;;;;;5006014;28;20038;-55
2022/05/18 11:10:51;;;;;;;6.93;5.82;;;30.30;76.60;;;;;;5006804;28;20052;-55
2022/05/18 11:13:21;;;;;;;6.00;4.88;;;30.30;78.80;;;;;;5013754;28;20053;-55
2022/05/18 11:16:11;;;;;;;7.03;4.97;;;30.30;74.80;;;;;;5015776;28;20057;-53
2022/05/18 11:18:44;;;;;;;6.55;4.40;;;30.30;74.60;;;;;;5012474;28;20401;-54
2022/05/18 11:21:42;;;;;;;6.15;4.55;;;30.30;74.60;;;;;;5016114;28;20034;-55
2022/05/18 11:24:20;;;;;;;6.13;4.65;;;30.40;73.90;;;;;;5011104;28;20054;-55
2022/05/18 11:27:05;;;;;;;7.63;4.32;;;30.50;72.80;;;;;;5012067;28;20068;-54
2022/05/18 11:29:59;;;;;;;8.73;5.30;;;30.50;75.80;;;;;;5013177;28;20042;-54
2022/05/18 11:32:46;;;;;;;6.93;4.55;;;30.40;73.80;;;;;;5031340;28;20129;-55
2022/05/18 11:35:32;;;;;;;5.65;4.68;;;30.50;75.60;;;;;;5011237;28;20113;-55
2022/05/18 11:38:16;;;;;;;6.53;5.03;;;30.40;72.10;;;;;;5010931;28;20070;-55
2022/05/18 11:41:12;;;;;;;7.05;4.35;;;30.40;73.50;;;;;;5002274;28;20331;-55
2022/05/18 11:44:03;;;;;;;5.60;4.13;;;30.40;72.00;;;;;;5011575;28;20053;-55
2022/05/18 11:46:46;;;;;;;6.65;4.55;;;30.20;70.00;;;;;;5026850;28;20053;-55
2022/05/18 11:49:24;;;;;;;9.25;6.03;;;30.30;72.40;;;;;;5018440;28;20045;-54
2022/05/18 11:52:21;;;;;;;10.00;5.05;;;30.30;71.80;;;;;;5009670;28;20107;-55
2022/05/18 11:55:21;;;;;;;7.60;5.53;;;30.40;74.30;;;;;;4996779;28;20045;-56
2022/05/18 11:58:24;;;;;;;7.32;4.60;;;30.50;73.00;;;;;;5006473;28;20461;-53
2022/05/18 12:01:05;;;;;;;6.25;3.67;;;30.50;73.30;;;;;;5002464;28;20076;-55
2022/05/18 12:03:47;;;;;;;4.85;3.90;;;30.60;73.30;;;;;;5009745;28;20050;-55
2022/05/18 12:06:33;;;;;;;7.35;4.18;;;30.60;72.40;;;;;;5002539;28;20050;-55
2022/05/18 12:09:13;;;;;;;6.70;3.90;;;30.50;68.90;;;;;;5010153;28;20095;-54
2022/05/18 12:11:47;;;;;;;7.47;3.85;;;30.60;68.90;;;;;;4990091;28;20057;-54
2022/05/18 12:14:24;;;;;;;6.63;4.18;;;30.60;70.60;;;;;;4991737;28;20133;-55
2022/05/18 12:17:15;;;;;;;3.92;3.55;;;30.60;70.30;;;;;;4991355;28;20461;-54
2022/05/18 12:20:05;;;;;;;5.88;3.90;;;30.60;71.30;;;;;;4991416;28;20130;-53
2022/05/18 12:22:41;;;;;;;5.47;3.20;;;30.80;68.70;;;;;;4994023;28;20046;-55
2022/05/18 12:25:10;;;;;;;3.80;3.07;;;31.00;70.00;;;;;;5010765;28;20045;-55
2022/05/18 12:27:36;;;;;;;6.60;3.88;;;31.20;69.70;;;;;;5010887;28;20063;-54
2022/05/18 12:30:06;;;;;;;5.63;3.90;;;30.90;67.20;;;;;;5010920;28;20042;-55
2022/05/18 12:32:33;;;;;;;4.65;3.80;;;30.80;67.30;;;;;;5011110;28;20073;-55
2022/05/18 12:35:16;;;;;;;;;;;31.00;66.70;;;;;;5011372;28;20499;-55
2022/05/18 12:38:03;;;;;;;5.60;4.22;;;31.10;65.90;;;;;;4997777;28;19922;-54
2022/05/18 12:40:52;;;;;;;4.75;4.22;;;31.10;65.80;;;;;;5010862;28;20053;-55
2022/05/18 12:43:26;;;;;;;5.00;4.18;;;31.00;63.10;;;;;;5000014;28;20468;-55
2022/05/18 12:46:15;;;;;;;5.95;4.63;;;31.10;65.10;;;;;;5011048;28;20496;-55
2022/05/18 12:48:59;;;;;;;7.47;5.13;;;31.20;64.10;;;;;;5010766;28;20042;-55
2022/05/18 12:51:27;;;;;;;7.32;4.65;;;31.40;65.90;;;;;;5009892;28;20125;-55
2022/05/18 12:53:56;;;;;;;8.02;4.32;;;31.50;63.30;;;;;;5010260;28;20045;-55
2022/05/18 12:56:35;;;;;;;5.97;5.15;;;31.60;65.70;;;;;;5010638;28;20073;-54
2022/05/18 12:59:06;;;;;;;4.90;4.40;;;31.30;64.80;;;;;;5010545;28;20553;-55
2022/05/18 13:01:37;;;;;;;5.88;3.97;;;31.10;64.40;;;;;;5010674;28;20136;-55
2022/05/18 13:04:09;;;;;;;4.90;4.30;;;31.10;64.40;;;;;;5009390;28;20447;-55
2022/05/18 13:07:00;;;;;;;7.03;4.72;;;31.50;65.10;;;;;;5002865;28;20042;-55
2022/05/18 13:09:35;;;;;;;5.75;3.67;;;31.90;63.90;;;;;;4999258;28;20077;-55
2022/05/18 13:12:22;;;;;;;5.88;3.92;;;32.10;66.30;;;;;;5010531;28;20042;-55
2022/05/18 13:14:56;;;;;;;6.80;4.20;;;32.00;64.50;;;;;;5010556;28;20100;-55
2022/05/18 13:17:24;;;;;;;5.00;3.83;;;32.00;62.50;;;;;;5010493;28;20142;-54
2022/05/18 13:19:59;;;;;;;7.70;4.82;;;31.60;64.90;;;;;;5010468;28;20042;-55
2022/05/18 13:22:37;;;;;;;8.88;5.60;;;31.40;64.40;;;;;;5009426;28;20056;-54
2022/05/18 13:25:05;;;;;;;6.18;5.60;;;31.20;65.10;;;;;;5009105;28;20488;-55